createdAt,value
2022-08-17T00:01:30.080Z,20.00
2022-08-17T00:04:12.319Z,19.93
2022-08-17T00:06:42.870Z,19.93
2022-08-17T00:09:12.806Z,19.94
2022-08-17T00:12:42.111Z,19.94
2022-08-17T00:14:32.868Z,19.90
2022-08-17T00:16:59.489Z,19.87
2022-08-17T00:19:26.901Z,19.84
2022-08-17T00:22:32.814Z,19.81
2022-08-17T00:24:44.072Z,19.79
2022-08-17T00:27:10.568Z,19.77
2022-08-17T00:29:37.023Z,19.71
2022-08-17T00:33:11.875Z,19.72
2022-08-17T00:34:50.944Z,19.71
2022-08-17T00:37:17.469Z,19.65
2022-08-17T00:39:44.254Z,19.70
2022-08-17T00:42:19.532Z,19.68
2022-08-17T00:44:46.723Z,19.68
2022-08-17T00:47:14.002Z,19.67
2022-08-17T00:49:40.650Z,19.72
2022-08-17T00:52:15.527Z,19.71
2022-08-17T00:54:46.465Z,19.73
2022-08-17T00:57:21.813Z,19.73
2022-08-17T01:00:02.655Z,19.75
2022-08-17T01:02:34.442Z,19.74
2022-08-17T01:05:13.674Z,19.69
2022-08-17T01:07:41.421Z,19.64
2022-08-17T01:10:57.279Z,19.73
2022-08-17T01:12:57.998Z,19.69
2022-08-17T01:15:24.606Z,19.70
2022-08-17T01:17:51.150Z,19.68
2022-08-17T01:20:17.804Z,19.63
2022-08-17T01:22:44.422Z,19.63
2022-08-17T01:25:12.583Z,19.65
2022-08-17T01:27:39.419Z,19.65
2022-08-17T01:30:56.813Z,19.66
2022-08-17T01:32:56.952Z,19.63
2022-08-17T01:35:23.533Z,19.66
2022-08-17T01:37:50.387Z,19.71
2022-08-17T01:40:36.158Z,19.70
2022-08-17T01:43:14.465Z,19.66
2022-08-17T01:45:47.670Z,19.71
2022-08-17T01:48:14.892Z,19.72
2022-08-17T01:50:44.556Z,19.79
2022-08-17T01:53:19.235Z,19.81
2022-08-17T01:55:52.379Z,19.74
2022-08-17T01:58:19.933Z,19.78
2022-08-17T02:01:00.556Z,19.79
2022-08-17T02:03:28.749Z,19.78
2022-08-17T02:05:55.666Z,19.76
2022-08-17T02:08:37.052Z,19.79
2022-08-17T02:11:11.900Z,19.76
2022-08-17T02:13:39.161Z,19.81
2022-08-17T02:16:06.062Z,19.79
2022-08-17T02:18:32.724Z,19.79
2022-08-17T02:20:59.536Z,19.80
2022-08-17T02:23:30.523Z,19.82
2022-08-17T02:25:59.724Z,19.86
2022-08-17T02:28:26.317Z,19.82
2022-08-17T02:31:02.589Z,19.83
2022-08-17T02:33:41.863Z,19.82
2022-08-17T02:36:09.276Z,19.83
2022-08-17T02:38:37.686Z,19.82
2022-08-17T02:41:04.544Z,19.79
2022-08-17T02:43:31.898Z,19.75
2022-08-17T02:45:58.322Z,19.59
2022-08-17T02:48:30.437Z,19.32
2022-08-17T02:50:58.481Z,19.17
2022-08-17T02:53:25.643Z,19.12
2022-08-17T02:55:52.687Z,19.08
2022-08-17T02:58:34.326Z,19.06
2022-08-17T03:01:03.229Z,19.07
2022-08-17T03:03:29.802Z,19.08
2022-08-17T03:05:56.409Z,19.11
2022-08-17T03:08:23.355Z,19.11
2022-08-17T03:10:50.505Z,19.16
2022-08-17T03:13:18.088Z,19.22
2022-08-17T03:15:45.928Z,19.33
2022-08-17T03:18:25.096Z,19.38
2022-08-17T03:20:59.621Z,19.40
2022-08-17T03:23:29.547Z,19.38
2022-08-17T03:25:57.101Z,19.32
2022-08-17T03:28:24.220Z,19.26
2022-08-17T03:30:51.626Z,19.21
2022-08-17T03:33:18.997Z,19.27
2022-08-17T03:35:46.195Z,19.33
2022-08-17T03:38:15.885Z,19.37
2022-08-17T03:40:57.160Z,19.42
2022-08-17T03:43:31.737Z,19.40
2022-08-17T03:46:33.917Z,19.40
2022-08-17T03:49:23.336Z,19.38
2022-08-17T03:52:08.637Z,19.37
2022-08-17T03:54:53.604Z,19.28
2022-08-17T03:57:20.290Z,19.36
2022-08-17T03:59:47.571Z,19.39
2022-08-17T04:02:20.216Z,19.26
2022-08-17T04:04:46.913Z,19.11
2022-08-17T04:07:13.468Z,19.00
2022-08-17T04:09:40.006Z,18.96
2022-08-17T04:12:09.317Z,18.79
2022-08-17T04:14:51.876Z,18.71
2022-08-17T04:17:20.049Z,18.71
2022-08-17T04:19:46.720Z,18.64
2022-08-17T04:22:30.626Z,18.71
2022-08-17T04:25:05.661Z,18.76
2022-08-17T04:27:32.354Z,18.77
2022-08-17T04:29:58.858Z,18.74
2022-08-17T04:33:04.386Z,18.71
2022-08-17T04:35:11.851Z,18.71
2022-08-17T04:37:38.282Z,18.72
2022-08-17T04:40:25.952Z,18.65
2022-08-17T04:43:07.291Z,18.67
2022-08-17T04:45:33.896Z,18.69
2022-08-17T04:48:01.240Z,18.75
2022-08-17T04:50:27.823Z,18.82
2022-08-17T04:52:54.488Z,18.81
2022-08-17T04:55:21.477Z,18.79
2022-08-17T04:57:48.012Z,18.81
2022-08-17T05:00:14.927Z,18.81
2022-08-17T05:02:50.921Z,18.84
2022-08-17T05:05:29.708Z,18.84
2022-08-17T05:08:00.781Z,18.97
2022-08-17T05:10:30.669Z,19.01
2022-08-17T05:13:02.948Z,19.08
2022-08-17T05:15:33.112Z,19.13
2022-08-17T05:18:04.074Z,19.16
2022-08-17T05:20:31.708Z,19.25
2022-08-17T05:23:00.913Z,19.32
2022-08-17T05:25:37.558Z,19.33
2022-08-17T05:28:05.274Z,19.44
2022-08-17T05:30:33.946Z,19.49
2022-08-17T05:33:03.872Z,19.52
2022-08-17T05:35:33.371Z,19.47
2022-08-17T05:38:00.785Z,19.52
2022-08-17T05:40:28.379Z,19.60
2022-08-17T05:43:39.041Z,19.61
2022-08-17T05:46:18.965Z,19.69
2022-08-17T05:48:51.841Z,19.71
2022-08-17T05:51:37.045Z,19.70
2022-08-17T05:54:24.742Z,19.70
2022-08-17T05:57:15.150Z,19.77
2022-08-17T05:59:41.849Z,19.84
2022-08-17T06:02:18.622Z,19.83
2022-08-17T06:05:10.325Z,19.92
2022-08-17T06:07:52.677Z,19.97
2022-08-17T06:10:32.981Z,20.00
2022-08-17T06:13:14.453Z,20.03
2022-08-17T06:15:43.505Z,20.00
2022-08-17T06:18:18.906Z,20.06
2022-08-17T06:20:56.477Z,20.05
2022-08-17T06:23:37.474Z,20.06
2022-08-17T06:26:31.225Z,20.09
2022-08-17T06:29:30.699Z,20.18
2022-08-17T06:32:06.265Z,20.21
2022-08-17T06:34:37.989Z,20.26
2022-08-17T06:37:39.178Z,20.30
2022-08-17T06:40:18.644Z,20.29
2022-08-17T06:43:05.681Z,20.27
2022-08-17T06:45:49.203Z,20.29
2022-08-17T06:48:31.663Z,20.39
2022-08-17T06:51:11.229Z,20.44
2022-08-17T06:53:48.282Z,20.45
2022-08-17T06:56:27.064Z,20.38
2022-08-17T06:59:19.612Z,20.40
2022-08-17T07:01:49.614Z,20.34
2022-08-17T07:04:23.465Z,20.33
2022-08-17T07:07:23.001Z,20.34
2022-08-17T07:09:51.305Z,20.39
2022-08-17T07:12:22.483Z,20.43
2022-08-17T07:14:53.210Z,20.51
2022-08-17T07:17:22.397Z,20.56
2022-08-17T07:20:17.809Z,20.57
2022-08-17T07:23:19.054Z,20.62
2022-08-17T07:25:45.705Z,20.63
2022-08-17T07:28:12.970Z,20.62
2022-08-17T07:30:46.983Z,20.69
2022-08-17T07:33:21.053Z,20.74
2022-08-17T07:35:48.523Z,20.77
2022-08-17T07:38:30.344Z,20.76
2022-08-17T07:41:02.041Z,20.70
2022-08-17T07:43:39.607Z,20.69
2022-08-17T07:46:32.378Z,20.63
2022-08-17T07:49:07.892Z,20.66
2022-08-17T07:51:43.903Z,20.65
2022-08-17T07:54:22.425Z,20.61
2022-08-17T07:56:55.517Z,20.57
2022-08-17T07:59:34.402Z,20.61
2022-08-17T08:02:03.563Z,20.64
2022-08-17T08:05:00.198Z,20.64
2022-08-17T08:07:38.146Z,20.64
2022-08-17T08:10:16.806Z,20.62
2022-08-17T08:12:53.694Z,20.65
2022-08-17T08:15:22.239Z,20.67
2022-08-17T08:17:57.698Z,20.76
2022-08-17T08:20:51.358Z,20.73
2022-08-17T08:23:57.378Z,20.64
2022-08-17T08:26:55.414Z,20.48
2022-08-17T08:29:31.026Z,20.38
2022-08-17T08:32:03.932Z,20.34
2022-08-17T08:35:08.200Z,20.29
2022-08-17T08:37:59.860Z,20.20
2022-08-17T08:40:54.333Z,20.20
2022-08-17T08:43:29.932Z,20.22
2022-08-17T08:46:02.382Z,20.25
2022-08-17T08:48:58.417Z,20.32
2022-08-17T08:51:48.435Z,20.32
2022-08-17T08:54:22.324Z,20.35
2022-08-17T08:57:23.177Z,20.30
2022-08-17T09:00:15.652Z,20.27
2022-08-17T09:03:02.907Z,20.24
2022-08-17T09:05:54.117Z,20.17
2022-08-17T09:08:43.695Z,20.24
2022-08-17T09:11:22.387Z,20.20
2022-08-17T09:13:58.168Z,20.21
2022-08-17T09:16:37.370Z,20.25
2022-08-17T09:19:11.897Z,20.23
2022-08-17T09:21:49.703Z,20.25
2022-08-17T09:24:33.510Z,20.28
2022-08-17T09:27:11.538Z,20.27
2022-08-17T09:29:43.502Z,20.27
2022-08-17T09:32:19.596Z,20.28
2022-08-17T09:35:01.420Z,20.34
2022-08-17T09:37:37.523Z,20.34
2022-08-17T09:40:17.465Z,20.46
2022-08-17T09:42:52.392Z,20.48
2022-08-17T09:45:26.338Z,20.48
2022-08-17T09:47:59.896Z,20.49
2022-08-17T09:51:04.705Z,20.58
2022-08-17T09:53:35.637Z,20.55
2022-08-17T09:56:12.536Z,20.52
2022-08-17T09:59:09.132Z,20.54
2022-08-17T10:01:43.231Z,20.43
2022-08-17T10:04:29.880Z,20.39
2022-08-17T10:07:30.542Z,20.34
2022-08-17T10:10:03.097Z,20.39
2022-08-17T10:12:46.484Z,20.37
2022-08-17T10:15:22.453Z,20.31
2022-08-17T10:18:20.636Z,20.31
2022-08-17T10:21:15.485Z,20.31
2022-08-17T10:24:02.702Z,20.15
2022-08-17T10:26:46.303Z,20.10
2022-08-17T10:29:28.883Z,20.00
2022-08-17T10:32:01.530Z,20.02
2022-08-17T10:34:41.212Z,19.97
2022-08-17T10:37:37.693Z,19.91
2022-08-17T10:40:24.518Z,19.90
2022-08-17T10:43:36.596Z,19.97
2022-08-17T10:46:46.256Z,19.95
2022-08-17T10:49:18.810Z,20.04
2022-08-17T10:51:48.009Z,20.03
2022-08-17T10:54:58.092Z,20.06
2022-08-17T10:57:38.946Z,20.14
2022-08-17T11:00:07.904Z,20.18
2022-08-17T11:03:01.041Z,20.27
2022-08-17T11:05:44.145Z,20.29
2022-08-17T11:08:33.397Z,20.40
2022-08-17T11:11:19.743Z,20.59
2022-08-17T11:14:11.238Z,20.67
2022-08-17T11:16:57.292Z,20.68
2022-08-17T11:19:43.426Z,20.72
2022-08-17T11:22:34.027Z,20.71
2022-08-17T11:25:17.210Z,20.75
2022-08-17T11:27:53.359Z,20.74
2022-08-17T11:30:46.893Z,20.73
2022-08-17T11:33:33.924Z,20.67
2022-08-17T11:36:33.028Z,20.66
2022-08-17T11:39:17.547Z,20.61
2022-08-17T11:42:22.002Z,20.52
2022-08-17T11:44:55.642Z,20.49
2022-08-17T11:48:27.065Z,20.39
2022-08-17T11:51:19.224Z,20.29
2022-08-17T11:53:45.823Z,20.24
2022-08-17T11:56:32.767Z,20.18
2022-08-17T11:59:00.807Z,20.20
2022-08-17T12:01:28.966Z,20.18
2022-08-17T12:04:24.975Z,20.13
2022-08-17T12:06:56.859Z,20.07
2022-08-17T12:09:29.835Z,20.09
2022-08-17T12:12:14.549Z,20.02
2022-08-17T12:15:09.459Z,19.98
2022-08-17T12:17:41.207Z,19.85
2022-08-17T12:20:33.561Z,19.88
2022-08-17T12:23:17.126Z,19.87
2022-08-17T12:25:49.451Z,19.77
2022-08-17T12:28:30.640Z,19.70
2022-08-17T12:31:03.726Z,19.57
2022-08-17T12:33:30.689Z,19.63
2022-08-17T12:36:03.922Z,19.67
2022-08-17T12:38:36.063Z,19.64
2022-08-17T12:41:24.978Z,19.60
2022-08-17T12:44:03.761Z,19.51
2022-08-17T12:46:48.245Z,19.42
2022-08-17T12:49:16.660Z,19.43
2022-08-17T12:51:48.149Z,19.40
2022-08-17T12:54:38.003Z,19.47
2022-08-17T12:57:20.471Z,19.41
2022-08-17T12:59:52.480Z,19.46
2022-08-17T13:02:24.371Z,19.49
2022-08-17T13:04:53.407Z,19.48
2022-08-17T13:07:28.409Z,19.53
2022-08-17T13:09:54.994Z,19.50
2022-08-17T13:12:39.554Z,19.57
2022-08-17T13:15:06.213Z,19.65
2022-08-17T13:17:35.974Z,19.62
2022-08-17T13:20:16.251Z,19.64
2022-08-17T13:22:44.325Z,19.72
2022-08-17T13:25:16.333Z,19.72
2022-08-17T13:27:50.665Z,19.78
2022-08-17T13:30:23.765Z,19.82
2022-08-17T13:32:50.404Z,19.80
2022-08-17T13:35:41.013Z,19.79
2022-08-17T13:38:36.065Z,19.79
2022-08-17T13:41:03.957Z,19.79
2022-08-17T13:43:37.567Z,19.78
2022-08-17T13:46:21.718Z,19.74
2022-08-17T13:49:11.458Z,19.79
2022-08-17T13:51:46.352Z,19.79
2022-08-17T13:54:33.192Z,19.79
2022-08-17T13:57:06.552Z,19.78
2022-08-17T13:59:54.616Z,19.84
2022-08-17T14:02:25.974Z,19.86
2022-08-17T14:04:55.675Z,19.98
2022-08-17T14:07:31.130Z,20.02
2022-08-17T14:10:17.744Z,20.03
2022-08-17T14:12:45.412Z,20.04
2022-08-17T14:15:13.992Z,20.10
2022-08-17T14:17:40.712Z,20.10
2022-08-17T14:20:10.616Z,20.19
2022-08-17T14:22:39.549Z,20.23
2022-08-17T14:25:10.377Z,20.22
2022-08-17T14:27:52.222Z,20.26
2022-08-17T14:30:22.344Z,20.29
2022-08-17T14:32:49.572Z,20.35
2022-08-17T14:35:16.172Z,20.39
2022-08-17T14:37:44.622Z,20.37
2022-08-17T14:40:14.212Z,20.35
2022-08-17T14:42:43.908Z,20.40
2022-08-17T14:45:31.838Z,20.39
2022-08-17T14:47:59.292Z,20.30
2022-08-17T14:50:25.913Z,20.38
2022-08-17T14:52:53.928Z,20.39
2022-08-17T14:55:22.373Z,20.38
2022-08-17T14:57:49.089Z,20.35
2022-08-17T15:00:16.634Z,20.35
2022-08-17T15:02:50.854Z,20.34
2022-08-17T15:05:17.692Z,20.32
2022-08-17T15:07:44.546Z,20.30
2022-08-17T15:10:13.248Z,20.29
2022-08-17T15:12:40.924Z,20.31
2022-08-17T15:15:10.010Z,20.32
2022-08-17T15:17:44.503Z,20.30
2022-08-17T15:20:26.361Z,20.33
2022-08-17T15:22:55.302Z,20.32
2022-08-17T15:25:22.402Z,20.41
2022-08-17T15:27:49.148Z,20.44
2022-08-17T15:30:16.055Z,20.51
2022-08-17T15:32:46.865Z,20.69
2022-08-17T15:35:26.823Z,20.67
2022-08-17T15:38:06.498Z,20.68
2022-08-17T15:40:40.411Z,20.71
2022-08-17T15:43:11.225Z,20.72
2022-08-17T15:45:38.285Z,20.69
2022-08-17T15:48:04.896Z,20.72
2022-08-17T15:50:31.981Z,20.71
2022-08-17T15:53:00.783Z,20.69
2022-08-17T15:55:28.990Z,20.69
2022-08-17T15:57:55.519Z,20.69
2022-08-17T16:00:23.994Z,20.66
2022-08-17T16:03:14.597Z,20.67
2022-08-17T16:05:43.471Z,20.69
2022-08-17T16:08:11.053Z,20.65
2022-08-17T16:10:38.191Z,20.67
2022-08-17T16:13:04.694Z,20.65
2022-08-17T16:15:34.068Z,20.70
2022-08-17T16:18:00.583Z,20.71
2022-08-17T16:20:27.241Z,20.70
2022-08-17T16:22:54.129Z,20.72
2022-08-17T16:25:49.016Z,20.76
2022-08-17T16:28:16.162Z,20.76
2022-08-17T16:30:44.485Z,20.77
2022-08-17T16:33:12.176Z,20.76
2022-08-17T16:35:41.880Z,20.76
2022-08-17T16:38:09.424Z,20.75
2022-08-17T16:40:36.452Z,20.72
2022-08-17T16:43:04.331Z,20.77
2022-08-17T16:45:36.273Z,20.70
2022-08-17T16:48:02.889Z,20.67
2022-08-17T16:50:29.758Z,20.66
2022-08-17T16:53:08.424Z,20.67
2022-08-17T16:55:35.851Z,20.64
2022-08-17T16:58:06.397Z,20.63
2022-08-17T17:00:34.057Z,20.63
2022-08-17T17:03:19.128Z,20.56
2022-08-17T17:06:18.695Z,20.58
2022-08-17T17:08:55.862Z,20.53
2022-08-17T17:11:34.210Z,20.56
2022-08-17T17:14:04.784Z,20.55
2022-08-17T17:16:45.719Z,20.54
2022-08-17T17:19:51.354Z,20.59
2022-08-17T17:22:24.429Z,20.52
2022-08-17T17:25:07.692Z,20.45
2022-08-17T17:27:47.315Z,20.44
2022-08-17T17:30:20.766Z,20.45
2022-08-17T17:33:06.157Z,20.45
2022-08-17T17:35:33.887Z,20.46
2022-08-17T17:38:05.449Z,20.41
2022-08-17T17:40:42.737Z,20.36
2022-08-17T17:43:37.184Z,20.37
2022-08-17T17:46:26.485Z,20.32
2022-08-17T17:48:52.825Z,20.34
2022-08-17T17:52:09.075Z,20.35
2022-08-17T17:54:46.794Z,20.40
2022-08-17T17:57:38.270Z,20.36
2022-08-17T18:00:22.070Z,20.35
2022-08-17T18:03:12.649Z,20.38
2022-08-17T18:06:25.562Z,20.40
2022-08-17T18:09:39.970Z,20.37
2022-08-17T18:12:12.182Z,20.30
2022-08-17T18:14:58.311Z,20.33
2022-08-17T18:17:24.755Z,20.38
2022-08-17T18:19:55.252Z,20.37
2022-08-17T18:22:22.743Z,20.31
2022-08-17T18:24:56.124Z,20.28
2022-08-17T18:27:28.301Z,20.26
2022-08-17T18:29:56.919Z,20.26
2022-08-17T18:32:23.396Z,20.29
2022-08-17T18:34:56.599Z,20.23
2022-08-17T18:37:46.589Z,20.32
2022-08-17T18:40:16.327Z,20.30
2022-08-17T18:43:04.551Z,20.25
2022-08-17T18:45:34.777Z,20.24
2022-08-17T18:48:02.030Z,20.22
2022-08-17T18:50:43.817Z,20.21
2022-08-17T18:53:26.755Z,20.20
2022-08-17T18:56:33.438Z,20.24
2022-08-17T18:59:11.279Z,20.21
2022-08-17T19:02:10.022Z,20.19
2022-08-17T19:05:06.180Z,20.15
2022-08-17T19:07:35.749Z,20.19
2022-08-17T19:10:28.616Z,20.22
2022-08-17T19:13:00.296Z,20.30
2022-08-17T19:15:35.866Z,20.28
2022-08-17T19:18:15.806Z,20.26
2022-08-17T19:20:53.766Z,20.24
2022-08-17T19:23:53.366Z,20.26
2022-08-17T19:26:53.513Z,20.25
2022-08-17T19:29:36.469Z,20.18
2022-08-17T19:32:04.072Z,20.20
2022-08-17T19:34:34.439Z,20.17
2022-08-17T19:37:29.981Z,20.17
2022-08-17T19:40:48.814Z,20.14
2022-08-17T19:43:15.311Z,20.16
2022-08-17T19:45:50.176Z,20.21
2022-08-17T19:48:38.444Z,20.22
2022-08-17T19:51:15.563Z,20.11
2022-08-17T19:54:26.931Z,20.19
2022-08-17T19:57:22.200Z,20.19
2022-08-17T19:59:58.642Z,20.17
2022-08-17T20:02:49.761Z,20.24
2022-08-17T20:05:30.690Z,20.26
2022-08-17T20:08:11.504Z,20.25
2022-08-17T20:11:10.270Z,20.23
2022-08-17T20:13:41.433Z,20.22
2022-08-17T20:16:10.017Z,20.23
2022-08-17T20:18:48.532Z,20.20
2022-08-17T20:21:20.080Z,20.18
2022-08-17T20:23:56.350Z,20.15
2022-08-17T20:26:44.107Z,20.19
2022-08-17T20:29:39.971Z,20.18
2022-08-17T20:32:22.233Z,20.19
2022-08-17T20:35:00.367Z,20.19
2022-08-17T20:37:31.666Z,20.18
2022-08-17T20:39:58.044Z,20.16
2022-08-17T20:42:24.501Z,20.17
2022-08-17T20:44:57.596Z,20.15
2022-08-17T20:48:01.215Z,20.14
2022-08-17T20:50:34.815Z,20.17
2022-08-17T20:53:08.110Z,20.14
2022-08-17T20:55:51.791Z,20.13
2022-08-17T20:58:30.911Z,20.11
2022-08-17T21:00:57.696Z,20.09
2022-08-17T21:03:24.334Z,20.01
2022-08-17T21:05:59.943Z,19.96
2022-08-17T21:08:45.674Z,19.97
2022-08-17T21:12:02.306Z,19.97
2022-08-17T21:14:29.510Z,20.00
2022-08-17T21:16:59.205Z,20.04
2022-08-17T21:20:10.479Z,20.02
2022-08-17T21:23:03.452Z,20.05
2022-08-17T21:25:59.285Z,20.03
2022-08-17T21:29:01.085Z,19.92
2022-08-17T21:31:43.043Z,19.89
2022-08-17T21:34:16.814Z,19.88
2022-08-17T21:36:45.682Z,19.89
2022-08-17T21:39:15.893Z,19.92
2022-08-17T21:41:53.574Z,19.91
2022-08-17T21:44:31.327Z,19.95
2022-08-17T21:47:13.820Z,19.94
2022-08-17T21:49:40.660Z,19.98
2022-08-17T21:52:07.470Z,20.01
2022-08-17T21:54:39.864Z,20.01
2022-08-17T21:57:16.254Z,19.96
2022-08-17T21:59:44.143Z,19.93
2022-08-17T22:02:20.810Z,19.90
2022-08-17T22:05:02.480Z,19.92
2022-08-17T22:07:39.746Z,19.94
2022-08-17T22:10:26.507Z,19.99
2022-08-17T22:13:24.114Z,20.02
2022-08-17T22:16:29.002Z,19.94
2022-08-17T22:18:58.581Z,19.89
2022-08-17T22:21:25.574Z,19.92
2022-08-17T22:24:05.935Z,19.89
2022-08-17T22:27:10.219Z,19.86
2022-08-17T22:29:44.462Z,19.84
2022-08-17T22:32:10.970Z,19.86
2022-08-17T22:34:38.993Z,19.85
2022-08-17T22:37:27.237Z,19.83
2022-08-17T22:39:58.966Z,19.84
2022-08-17T22:42:25.778Z,19.83
2022-08-17T22:44:54.528Z,19.80
2022-08-17T22:47:30.998Z,19.81
2022-08-17T22:50:04.502Z,19.82
2022-08-17T22:53:03.369Z,19.81
2022-08-17T22:55:51.706Z,19.82
2022-08-17T22:58:40.586Z,19.83
2022-08-17T23:01:43.501Z,19.78
2022-08-17T23:04:29.244Z,19.74
2022-08-17T23:06:55.863Z,19.58
2022-08-17T23:09:22.431Z,19.68
2022-08-17T23:11:52.549Z,19.58
2022-08-17T23:14:20.866Z,19.60
2022-08-17T23:16:50.947Z,19.59
2022-08-17T23:19:20.482Z,19.53
2022-08-17T23:21:51.004Z,19.67
2022-08-17T23:24:23.098Z,19.65
2022-08-17T23:26:50.065Z,19.62
2022-08-17T23:29:16.583Z,19.58
2022-08-17T23:31:43.203Z,19.65
2022-08-17T23:34:13.141Z,19.65
2022-08-17T23:36:39.644Z,19.62
2022-08-17T23:39:09.553Z,19.65
2022-08-17T23:41:39.898Z,19.61
2022-08-17T23:44:07.101Z,19.61
2022-08-17T23:46:34.671Z,19.68
2022-08-17T23:49:01.261Z,19.63
2022-08-17T23:51:31.579Z,19.67
2022-08-17T23:54:11.580Z,19.65
2022-08-17T23:56:46.540Z,19.66
2022-08-17T23:59:18.286Z,19.66
